createdAt,value
2018-06-29T00:00:41.986Z,95340.00
2018-06-29T00:03:13.790Z,95339.00
2018-06-29T00:05:45.604Z,95334.00
2018-06-29T00:08:17.349Z,95329.00
2018-06-29T00:10:49.220Z,95324.00
2018-06-29T00:13:21.066Z,95321.00
2018-06-29T00:15:52.917Z,95319.00
2018-06-29T00:18:25.051Z,95327.00
2018-06-29T00:20:56.850Z,95325.00
2018-06-29T00:23:28.630Z,95318.00
2018-06-29T00:26:00.367Z,95306.00
2018-06-29T00:28:32.171Z,95299.00
2018-06-29T00:31:04.590Z,95303.00
2018-06-29T00:33:36.482Z,95304.00
2018-06-29T00:36:08.362Z,95302.00
2018-06-29T00:38:40.059Z,95303.00
2018-06-29T00:41:11.849Z,95309.00
2018-06-29T00:43:43.627Z,95315.00
2018-06-29T00:46:15.026Z,95322.00
2018-06-29T00:48:49.579Z,95311.00
2018-06-29T00:51:21.422Z,95310.00
2018-06-29T00:53:53.337Z,95308.00
2018-06-29T00:56:25.210Z,95305.00
2018-06-29T00:58:57.050Z,95303.00
2018-06-29T01:01:28.829Z,95308.00
2018-06-29T01:04:00.630Z,95313.00
2018-06-29T01:06:32.539Z,95315.00
2018-06-29T01:09:04.451Z,95315.00
2018-06-29T01:11:36.162Z,95314.00
2018-06-29T01:14:08.236Z,95313.00
2018-06-29T01:16:40.026Z,95314.00
2018-06-29T01:19:11.835Z,95312.00
2018-06-29T01:21:43.638Z,95314.00
2018-06-29T01:24:15.415Z,95317.00
2018-06-29T01:26:47.330Z,95317.00
2018-06-29T01:29:19.469Z,95316.00
2018-06-29T01:31:51.193Z,95314.00
2018-06-29T01:34:22.498Z,95308.00
2018-06-29T01:36:54.166Z,95304.00
2018-06-29T01:39:25.871Z,95303.00
2018-06-29T01:41:57.517Z,95303.00
2018-06-29T01:44:29.304Z,95303.00
2018-06-29T01:47:01.370Z,95301.00
2018-06-29T01:49:33.123Z,95311.00
2018-06-29T01:52:04.878Z,95316.00
2018-06-29T01:54:36.770Z,95308.00
2018-06-29T01:57:08.083Z,95309.00
2018-06-29T01:59:39.604Z,95312.00
2018-06-29T02:02:11.406Z,95314.00
2018-06-29T02:04:43.141Z,95308.00
2018-06-29T02:07:14.859Z,95306.00
2018-06-29T02:09:46.595Z,95310.00
2018-06-29T02:12:18.408Z,95308.00
2018-06-29T02:14:50.469Z,95308.00
2018-06-29T02:17:22.310Z,95315.00
2018-06-29T02:19:54.050Z,95308.00
2018-06-29T02:22:25.790Z,95312.00
2018-06-29T02:24:57.524Z,95312.00
2018-06-29T02:27:29.218Z,95306.00
2018-06-29T02:30:00.976Z,95305.00
2018-06-29T02:32:32.650Z,95298.00
2018-06-29T02:35:04.522Z,95296.00
2018-06-29T02:37:36.273Z,95300.00
2018-06-29T02:40:08.218Z,95294.00
2018-06-29T02:42:39.875Z,95293.00
2018-06-29T02:45:11.679Z,95295.00
2018-06-29T02:47:43.550Z,95287.00
2018-06-29T02:50:14.821Z,95279.00
2018-06-29T02:52:46.550Z,95280.00
2018-06-29T02:55:18.359Z,95274.00
2018-06-29T02:57:49.973Z,95285.00
2018-06-29T03:00:21.981Z,95273.00
2018-06-29T03:02:54.091Z,95279.00
2018-06-29T03:05:25.904Z,95275.00
2018-06-29T03:07:57.784Z,95274.00
2018-06-29T03:10:29.982Z,95273.00
2018-06-29T03:13:01.767Z,95265.00
2018-06-29T03:15:33.577Z,95265.00
2018-06-29T03:18:05.332Z,95270.00
2018-06-29T03:20:37.296Z,95265.00
2018-06-29T03:23:09.635Z,95267.00
2018-06-29T03:25:41.550Z,95266.00
2018-06-29T03:28:13.549Z,95275.00
2018-06-29T03:30:45.392Z,95279.00
2018-06-29T03:33:17.095Z,95287.00
2018-06-29T03:35:48.930Z,95286.00
2018-06-29T03:38:20.761Z,95292.00
2018-06-29T03:40:52.566Z,95306.00
2018-06-29T03:43:24.373Z,95309.00
2018-06-29T03:45:56.130Z,95302.00
2018-06-29T03:48:28.155Z,95304.00
2018-06-29T03:50:59.986Z,95302.00
2018-06-29T03:53:31.802Z,95298.00
2018-06-29T03:56:04.584Z,95302.00
2018-06-29T03:58:36.327Z,95303.00
2018-06-29T04:01:08.217Z,95298.00
2018-06-29T04:03:39.929Z,95292.00
2018-06-29T04:06:12.370Z,95288.00
2018-06-29T04:08:44.147Z,95290.00
2018-06-29T04:11:15.846Z,95288.00
2018-06-29T04:13:47.602Z,95290.00
2018-06-29T04:16:19.369Z,95295.00
2018-06-29T04:18:51.161Z,95293.00
2018-06-29T04:21:22.887Z,95289.00
2018-06-29T04:23:54.541Z,95289.00
2018-06-29T04:26:26.301Z,95286.00
2018-06-29T04:28:58.086Z,95288.00
2018-06-29T04:31:30.001Z,95281.00
2018-06-29T04:34:01.775Z,95277.00
2018-06-29T04:36:33.514Z,95281.00
2018-06-29T04:39:08.280Z,95274.00
2018-06-29T04:41:40.221Z,95270.00
2018-06-29T04:44:12.021Z,95276.00
2018-06-29T04:46:43.795Z,95277.00
2018-06-29T04:49:15.862Z,95278.00
2018-06-29T04:51:47.709Z,95279.00
2018-06-29T04:54:19.523Z,95279.00
2018-06-29T04:56:52.029Z,95276.00
2018-06-29T04:59:23.749Z,95278.00
2018-06-29T05:01:55.527Z,95279.00
2018-06-29T05:04:27.209Z,95282.00
2018-06-29T05:06:58.531Z,95280.00
2018-06-29T05:09:30.142Z,95283.00
2018-06-29T05:12:01.893Z,95276.00
2018-06-29T05:14:33.669Z,95284.00
2018-06-29T05:17:05.688Z,95284.00
2018-06-29T05:19:37.403Z,95278.00
2018-06-29T05:22:09.504Z,95281.00
2018-06-29T05:24:41.225Z,95282.00
2018-06-29T05:27:12.942Z,95288.00
2018-06-29T05:29:44.629Z,95293.00
2018-06-29T05:32:16.347Z,95296.00
2018-06-29T05:34:48.062Z,95302.00
2018-06-29T05:37:19.755Z,95301.00
2018-06-29T05:39:52.468Z,95300.00
2018-06-29T05:42:24.145Z,95300.00
2018-06-29T05:44:55.825Z,95309.00
2018-06-29T05:47:27.566Z,95311.00
2018-06-29T05:49:59.255Z,95312.00
2018-06-29T05:52:31.298Z,95307.00
2018-06-29T05:55:02.981Z,95307.00
2018-06-29T05:57:34.846Z,95309.00
2018-06-29T06:00:07.698Z,95307.00
2018-06-29T06:02:39.502Z,95309.00
2018-06-29T06:05:11.538Z,95303.00
2018-06-29T06:07:43.323Z,95301.00
2018-06-29T06:10:15.022Z,95299.00
2018-06-29T06:12:46.707Z,95304.00
2018-06-29T06:15:18.325Z,95308.00
2018-06-29T06:17:50.051Z,95309.00
2018-06-29T06:20:21.698Z,95307.00
2018-06-29T06:22:53.583Z,95310.00
2018-06-29T06:25:24.795Z,95313.00
2018-06-29T06:27:56.596Z,95313.00
2018-06-29T06:30:28.286Z,95314.00
2018-06-29T06:33:00.125Z,95314.00
2018-06-29T06:35:32.115Z,95308.00
2018-06-29T06:38:04.114Z,95315.00
2018-06-29T06:40:35.917Z,95314.00
2018-06-29T06:43:07.609Z,95316.00
2018-06-29T06:45:39.346Z,95316.00
2018-06-29T06:48:11.094Z,95321.00
2018-06-29T06:50:42.780Z,95313.00
2018-06-29T06:53:14.625Z,95308.00
2018-06-29T06:55:46.358Z,95308.00
2018-06-29T06:58:18.151Z,95311.00
2018-06-29T07:00:49.959Z,95308.00
2018-06-29T07:03:21.658Z,95311.00
2018-06-29T07:05:53.335Z,95312.00
2018-06-29T07:08:25.065Z,95315.00
2018-06-29T07:10:56.908Z,95310.00
2018-06-29T07:13:28.694Z,95311.00
2018-06-29T07:16:00.443Z,95312.00
2018-06-29T07:18:32.294Z,95306.00
2018-06-29T07:21:04.226Z,95308.00
2018-06-29T07:23:35.978Z,95310.00
2018-06-29T07:26:07.768Z,95308.00
2018-06-29T07:28:39.493Z,95308.00
2018-06-29T07:31:11.113Z,95305.00
2018-06-29T07:33:42.835Z,95309.00
2018-06-29T07:36:14.997Z,95305.00
2018-06-29T07:38:46.827Z,95310.00
2018-06-29T07:41:18.539Z,95307.00
2018-06-29T07:43:50.216Z,95306.00
2018-06-29T07:46:21.924Z,95305.00
2018-06-29T07:48:53.645Z,95305.00
2018-06-29T07:51:25.396Z,95306.00
2018-06-29T07:53:57.092Z,95308.00
2018-06-29T07:56:28.777Z,95313.00
2018-06-29T07:59:00.495Z,95308.00
2018-06-29T08:01:32.140Z,95311.00
2018-06-29T08:04:04.155Z,95305.00
2018-06-29T08:06:35.927Z,95311.00
2018-06-29T08:09:11.095Z,95312.00
2018-06-29T08:11:42.742Z,95310.00
2018-06-29T08:14:14.418Z,95307.00
2018-06-29T08:16:46.140Z,95310.00
2018-06-29T08:19:17.800Z,95303.00
2018-06-29T08:21:50.314Z,95306.00
2018-06-29T08:24:22.063Z,95303.00
2018-06-29T08:26:53.863Z,95304.00
2018-06-29T08:29:25.635Z,95310.00
2018-06-29T08:31:57.318Z,95309.00
2018-06-29T08:34:29.023Z,95312.00
2018-06-29T08:37:00.763Z,95308.00
2018-06-29T08:39:32.542Z,95310.00
2018-06-29T08:42:04.243Z,95307.00
2018-06-29T08:44:35.947Z,95310.00
2018-06-29T08:47:07.953Z,95310.00
2018-06-29T08:49:39.868Z,95309.00
2018-06-29T08:52:11.492Z,95309.00
2018-06-29T08:54:43.286Z,95310.00
2018-06-29T08:57:14.594Z,95312.00
2018-06-29T08:59:46.055Z,95311.00
2018-06-29T09:02:17.827Z,95309.00
2018-06-29T09:04:49.497Z,95303.00
2018-06-29T09:07:20.793Z,95307.00
2018-06-29T09:09:52.402Z,95312.00
2018-06-29T09:12:24.230Z,95308.00
2018-06-29T09:14:56.057Z,95312.00
2018-06-29T09:17:27.814Z,95307.00
2018-06-29T09:19:59.574Z,95305.00
2018-06-29T09:22:31.362Z,95308.00
2018-06-29T09:25:03.282Z,95301.00
2018-06-29T09:27:35.006Z,95307.00
2018-06-29T09:30:07.409Z,95304.00
2018-06-29T09:32:39.126Z,95308.00
2018-06-29T09:35:11.655Z,95305.00
2018-06-29T09:37:43.466Z,95306.00
2018-06-29T09:40:15.323Z,95306.00
2018-06-29T09:42:47.091Z,95309.00
2018-06-29T09:45:18.967Z,95308.00
2018-06-29T09:47:50.896Z,95305.00
2018-06-29T09:50:22.623Z,95309.00
2018-06-29T09:52:54.385Z,95307.00
2018-06-29T09:55:26.159Z,95306.00
2018-06-29T09:57:58.147Z,95306.00
2018-06-29T10:00:30.968Z,95303.00
2018-06-29T10:03:03.129Z,95304.00
2018-06-29T10:05:34.922Z,95301.00
2018-06-29T10:08:06.807Z,95303.00
2018-06-29T10:10:38.615Z,95303.00
2018-06-29T10:13:10.377Z,95302.00
2018-06-29T10:15:42.137Z,95302.00
2018-06-29T10:18:13.980Z,95305.00
2018-06-29T10:20:45.824Z,95306.00
2018-06-29T10:23:17.643Z,95310.00
2018-06-29T10:25:49.451Z,95310.00
2018-06-29T10:28:21.173Z,95310.00
2018-06-29T10:30:52.972Z,95312.00
2018-06-29T10:33:24.743Z,95309.00
2018-06-29T10:35:56.636Z,95310.00
2018-06-29T10:38:28.885Z,95310.00
2018-06-29T10:41:00.809Z,95305.00
2018-06-29T10:43:32.517Z,95303.00
2018-06-29T10:46:04.323Z,95312.00
2018-06-29T10:48:36.147Z,95308.00
2018-06-29T10:51:08.035Z,95299.00
2018-06-29T10:53:39.809Z,95301.00
2018-06-29T10:56:11.674Z,95303.00
2018-06-29T10:58:43.512Z,95307.00
2018-06-29T11:01:15.342Z,95305.00
2018-06-29T11:03:47.365Z,95301.00
2018-06-29T11:06:19.125Z,95300.00
2018-06-29T11:08:50.858Z,95300.00
2018-06-29T11:11:22.614Z,95297.00
2018-06-29T11:13:54.421Z,95291.00
2018-06-29T11:16:26.091Z,95294.00
2018-06-29T11:18:57.719Z,95306.00
2018-06-29T11:21:29.454Z,95303.00
2018-06-29T11:24:01.163Z,95306.00
2018-06-29T11:26:32.914Z,95311.00
2018-06-29T11:29:04.649Z,95308.00
2018-06-29T11:31:36.322Z,95307.00
2018-06-29T11:34:07.982Z,95309.00
2018-06-29T11:36:39.676Z,95299.00
2018-06-29T11:39:13.872Z,95295.00
2018-06-29T11:41:45.735Z,95293.00
2018-06-29T11:44:17.427Z,95298.00
2018-06-29T11:46:49.105Z,95300.00
2018-06-29T11:49:20.771Z,95309.00
2018-06-29T11:51:52.577Z,95297.00
2018-06-29T11:54:24.385Z,95299.00
2018-06-29T11:56:56.088Z,95300.00
2018-06-29T11:59:27.762Z,95304.00
2018-06-29T12:01:59.486Z,95305.00
2018-06-29T12:04:31.186Z,95300.00
2018-06-29T12:07:02.990Z,95299.00
2018-06-29T12:09:34.624Z,95291.00
2018-06-29T12:12:06.386Z,95287.00
2018-06-29T12:14:38.213Z,95282.00
2018-06-29T12:17:09.910Z,95283.00
2018-06-29T12:19:41.557Z,95276.00
2018-06-29T12:22:13.272Z,95275.00
2018-06-29T12:24:44.985Z,95275.00
2018-06-29T12:27:16.753Z,95279.00
2018-06-29T12:29:48.478Z,95277.00
2018-06-29T12:32:20.228Z,95277.00
2018-06-29T12:34:52.299Z,95274.00
2018-06-29T12:37:23.853Z,95273.00
2018-06-29T12:39:55.323Z,95271.00
2018-06-29T12:42:27.083Z,95275.00
2018-06-29T12:44:58.746Z,95269.00
2018-06-29T12:47:30.052Z,95271.00
2018-06-29T12:50:01.482Z,95266.00
2018-06-29T12:52:33.249Z,95262.00
2018-06-29T12:55:05.045Z,95267.00
2018-06-29T12:57:36.850Z,95266.00
2018-06-29T13:00:09.137Z,95267.00
2018-06-29T13:02:40.840Z,95267.00
2018-06-29T13:05:12.673Z,95267.00
2018-06-29T13:07:44.628Z,95266.00
2018-06-29T13:10:16.435Z,95272.00
2018-06-29T13:12:48.186Z,95257.00
2018-06-29T13:15:20.012Z,95246.00
2018-06-29T13:17:51.862Z,95241.00
2018-06-29T13:20:24.267Z,95233.00
2018-06-29T13:22:56.104Z,95228.00
2018-06-29T13:25:27.788Z,95218.00
2018-06-29T13:27:59.575Z,95215.00
2018-06-29T13:30:31.298Z,95223.00
2018-06-29T13:33:03.039Z,95216.00
2018-06-29T13:35:34.804Z,95217.00
2018-06-29T13:38:06.656Z,95208.00
2018-06-29T13:40:38.426Z,95208.00
2018-06-29T13:43:10.243Z,95202.00
2018-06-29T13:45:41.460Z,95198.00
2018-06-29T13:48:13.135Z,95196.00
2018-06-29T13:50:44.837Z,95197.00
2018-06-29T13:53:16.613Z,95192.00
2018-06-29T13:55:48.458Z,95188.00
2018-06-29T13:58:20.357Z,95185.00
2018-06-29T14:00:52.082Z,95179.00
2018-06-29T14:03:23.809Z,95187.00
2018-06-29T14:05:56.001Z,95178.00
2018-06-29T14:08:27.832Z,95182.00
2018-06-29T14:10:59.674Z,95182.00
2018-06-29T14:13:31.491Z,95178.00
2018-06-29T14:16:03.281Z,95173.00
2018-06-29T14:18:35.178Z,95171.00
2018-06-29T14:21:07.236Z,95163.00
2018-06-29T14:23:38.986Z,95167.00
2018-06-29T14:26:13.949Z,95157.00
2018-06-29T14:28:45.769Z,95158.00
2018-06-29T14:31:17.535Z,95148.00
2018-06-29T14:33:49.426Z,95145.00
2018-06-29T14:36:21.081Z,95139.00
2018-06-29T14:38:52.926Z,95134.00
2018-06-29T14:41:24.631Z,95133.00
2018-06-29T14:43:56.814Z,95132.00
2018-06-29T14:46:28.508Z,95124.00
2018-06-29T14:49:00.287Z,95126.00
2018-06-29T14:51:34.751Z,95124.00
2018-06-29T14:54:06.562Z,95128.00
2018-06-29T14:56:38.333Z,95124.00
2018-06-29T14:59:10.128Z,95125.00
2018-06-29T15:01:41.859Z,95117.00
2018-06-29T15:04:13.685Z,95118.00
2018-06-29T15:06:45.356Z,95119.00
2018-06-29T15:09:17.092Z,95117.00
2018-06-29T15:11:49.283Z,95121.00
2018-06-29T15:14:20.997Z,95117.00
2018-06-29T15:16:52.761Z,95119.00
2018-06-29T15:19:24.391Z,95122.00
2018-06-29T15:21:56.374Z,95125.00
2018-06-29T15:24:28.026Z,95120.00
2018-06-29T15:26:59.748Z,95117.00
2018-06-29T15:29:31.526Z,95112.00
2018-06-29T15:32:03.146Z,95116.00
2018-06-29T15:34:34.794Z,95116.00
2018-06-29T15:37:06.042Z,95118.00
2018-06-29T15:39:37.543Z,95111.00
2018-06-29T15:42:09.183Z,95118.00
2018-06-29T15:44:40.875Z,95116.00
2018-06-29T15:47:12.514Z,95128.00
2018-06-29T15:49:44.305Z,95131.00
2018-06-29T15:52:16.102Z,95136.00
2018-06-29T15:54:47.783Z,95125.00
2018-06-29T15:57:23.968Z,95131.00
2018-06-29T15:59:55.646Z,95131.00
2018-06-29T16:02:27.275Z,95137.00
2018-06-29T16:04:58.901Z,95140.00
2018-06-29T16:07:30.543Z,95133.00
2018-06-29T16:10:02.106Z,95135.00
2018-06-29T16:12:33.317Z,95141.00
2018-06-29T16:15:05.434Z,95141.00
2018-06-29T16:17:37.322Z,95141.00
2018-06-29T16:20:09.445Z,95139.00
2018-06-29T16:22:41.137Z,95144.00
2018-06-29T16:25:12.824Z,95151.00
2018-06-29T16:27:44.499Z,95145.00
2018-06-29T16:30:16.236Z,95147.00
2018-06-29T16:32:47.625Z,95149.00
2018-06-29T16:35:19.043Z,95147.00
2018-06-29T16:37:50.645Z,95144.00
2018-06-29T16:40:22.322Z,95141.00
2018-06-29T16:42:54.846Z,95144.00
2018-06-29T16:45:29.716Z,95141.00
2018-06-29T16:48:02.685Z,95138.00
2018-06-29T16:50:34.413Z,95139.00
2018-06-29T16:53:06.721Z,95136.00
2018-06-29T16:55:38.439Z,95137.00
2018-06-29T16:58:10.191Z,95136.00
2018-06-29T17:00:41.913Z,95137.00
2018-06-29T17:03:13.517Z,95147.00
2018-06-29T17:05:45.288Z,95140.00
2018-06-29T17:08:19.481Z,95142.00
2018-06-29T17:10:52.281Z,95137.00
2018-06-29T17:13:24.016Z,95139.00
2018-06-29T17:15:56.423Z,95138.00
2018-06-29T17:18:28.058Z,95144.00
2018-06-29T17:20:59.726Z,95142.00
2018-06-29T17:23:31.595Z,95141.00
2018-06-29T17:26:03.227Z,95142.00
2018-06-29T17:28:35.889Z,95136.00
2018-06-29T17:31:07.618Z,95142.00
2018-06-29T17:33:39.469Z,95140.00
2018-06-29T17:36:11.345Z,95140.00
2018-06-29T17:38:43.238Z,95148.00
2018-06-29T17:41:15.319Z,95148.00
2018-06-29T17:43:47.130Z,95148.00
2018-06-29T17:46:18.753Z,95149.00
2018-06-29T17:48:51.041Z,95164.00
2018-06-29T17:51:23.268Z,95165.00
2018-06-29T17:53:55.771Z,95167.00
2018-06-29T17:56:28.926Z,95167.00
2018-06-29T17:59:00.588Z,95171.00
2018-06-29T18:01:32.191Z,95174.00
2018-06-29T18:04:04.937Z,95171.00
2018-06-29T18:06:36.725Z,95174.00
2018-06-29T18:09:11.142Z,95177.00
2018-06-29T18:11:42.790Z,95169.00
2018-06-29T18:14:14.677Z,95167.00
2018-06-29T18:16:47.009Z,95165.00
2018-06-29T18:19:18.925Z,95168.00
2018-06-29T18:21:50.698Z,95164.00
2018-06-29T18:24:22.403Z,95169.00
2018-06-29T18:26:54.146Z,95174.00
2018-06-29T18:29:25.938Z,95171.00
2018-06-29T18:31:58.505Z,95176.00
2018-06-29T18:34:31.325Z,95173.00
2018-06-29T18:37:03.119Z,95174.00
2018-06-29T18:39:34.879Z,95176.00
2018-06-29T18:42:07.184Z,95173.00
2018-06-29T18:44:39.176Z,95170.00
2018-06-29T18:47:12.009Z,95170.00
2018-06-29T18:49:43.605Z,95171.00
2018-06-29T18:52:15.364Z,95166.00
2018-06-29T18:54:47.106Z,95167.00
2018-06-29T18:57:19.130Z,95171.00
2018-06-29T18:59:50.988Z,95174.00
2018-06-29T19:02:23.957Z,95179.00
2018-06-29T19:04:55.562Z,95185.00
2018-06-29T19:07:27.303Z,95187.00
2018-06-29T19:09:58.952Z,95190.00
2018-06-29T19:12:31.467Z,95195.00
2018-06-29T19:15:03.886Z,95200.00
2018-06-29T19:17:35.810Z,95202.00
2018-06-29T19:20:07.543Z,95200.00
2018-06-29T19:22:39.258Z,95212.00
2018-06-29T19:25:11.702Z,95213.00
2018-06-29T19:27:43.585Z,95213.00
2018-06-29T19:30:15.178Z,95216.00
2018-06-29T19:32:46.939Z,95213.00
2018-06-29T19:35:18.664Z,95220.00
2018-06-29T19:37:51.035Z,95215.00
2018-06-29T19:40:22.882Z,95215.00
2018-06-29T19:42:55.225Z,95217.00
2018-06-29T19:45:26.952Z,95223.00
2018-06-29T19:47:58.738Z,95223.00
2018-06-29T19:50:30.303Z,95225.00
2018-06-29T19:53:01.895Z,95230.00
2018-06-29T19:55:33.539Z,95230.00
2018-06-29T19:58:05.306Z,95236.00
2018-06-29T20:00:36.862Z,95235.00
2018-06-29T20:03:09.192Z,95236.00
2018-06-29T20:05:40.774Z,95236.00
2018-06-29T20:08:13.076Z,95239.00
2018-06-29T20:10:45.737Z,95234.00
2018-06-29T20:13:17.602Z,95236.00
2018-06-29T20:15:49.238Z,95239.00
2018-06-29T20:18:21.095Z,95243.00
2018-06-29T20:20:53.602Z,95245.00
2018-06-29T20:23:25.293Z,95243.00
2018-06-29T20:25:58.063Z,95248.00
2018-06-29T20:28:29.702Z,95247.00
2018-06-29T20:31:01.259Z,95247.00
2018-06-29T20:33:32.863Z,95246.00
2018-06-29T20:36:05.544Z,95247.00
2018-06-29T20:38:37.358Z,95243.00
2018-06-29T20:41:08.994Z,95247.00
2018-06-29T20:43:40.845Z,95247.00
2018-06-29T20:46:12.588Z,95247.00
2018-06-29T20:48:44.355Z,95249.00
2018-06-29T20:51:16.127Z,95248.00
2018-06-29T20:53:48.013Z,95252.00
2018-06-29T20:56:20.541Z,95256.00
2018-06-29T20:58:52.185Z,95260.00
2018-06-29T21:01:23.915Z,95254.00
2018-06-29T21:03:55.753Z,95259.00
2018-06-29T21:06:26.985Z,95256.00
2018-06-29T21:08:58.718Z,95262.00
2018-06-29T21:11:30.393Z,95256.00
2018-06-29T21:14:02.151Z,95256.00
2018-06-29T21:16:33.823Z,95254.00
2018-06-29T21:19:05.699Z,95252.00
2018-06-29T21:21:37.456Z,95245.00
2018-06-29T21:24:09.215Z,95237.00
2018-06-29T21:26:40.978Z,95247.00
2018-06-29T21:29:12.955Z,95248.00
2018-06-29T21:31:44.638Z,95240.00
2018-06-29T21:34:16.331Z,95248.00
2018-06-29T21:36:48.133Z,95249.00
2018-06-29T21:39:19.962Z,95254.00
2018-06-29T21:41:51.652Z,95252.00
2018-06-29T21:44:23.362Z,95252.00
2018-06-29T21:46:55.119Z,95257.00
2018-06-29T21:49:26.946Z,95259.00
2018-06-29T21:51:58.599Z,95257.00
2018-06-29T21:54:30.421Z,95259.00
2018-06-29T21:57:02.062Z,95262.00
2018-06-29T21:59:33.778Z,95265.00
2018-06-29T22:02:05.695Z,95265.00
2018-06-29T22:04:37.558Z,95264.00
2018-06-29T22:07:09.278Z,95258.00
2018-06-29T22:09:41.038Z,95260.00
2018-06-29T22:12:12.787Z,95255.00
2018-06-29T22:14:44.407Z,95258.00
2018-06-29T22:17:15.983Z,95257.00
2018-06-29T22:19:47.729Z,95256.00
2018-06-29T22:22:19.451Z,95254.00
2018-06-29T22:24:51.155Z,95255.00
2018-06-29T22:27:22.961Z,95256.00
2018-06-29T22:29:54.822Z,95257.00
2018-06-29T22:32:26.499Z,95253.00
2018-06-29T22:34:58.246Z,95254.00
2018-06-29T22:37:30.057Z,95249.00
2018-06-29T22:40:01.821Z,95252.00
2018-06-29T22:42:33.638Z,95258.00
2018-06-29T22:45:05.711Z,95257.00
2018-06-29T22:47:37.443Z,95250.00
2018-06-29T22:50:09.937Z,95253.00
2018-06-29T22:52:41.601Z,95253.00
2018-06-29T22:55:13.407Z,95250.00
2018-06-29T22:57:45.094Z,95255.00
2018-06-29T23:00:16.838Z,95246.00
2018-06-29T23:02:48.445Z,95245.00
2018-06-29T23:05:20.443Z,95239.00
2018-06-29T23:07:52.103Z,95245.00
2018-06-29T23:10:23.807Z,95245.00
2018-06-29T23:12:55.551Z,95244.00
2018-06-29T23:15:27.255Z,95245.00
2018-06-29T23:17:59.102Z,95240.00
2018-06-29T23:20:30.979Z,95235.00
2018-06-29T23:23:02.729Z,95241.00
2018-06-29T23:25:34.485Z,95240.00
2018-06-29T23:28:06.391Z,95240.00
2018-06-29T23:30:38.154Z,95236.00
2018-06-29T23:33:09.885Z,95238.00
2018-06-29T23:35:41.606Z,95236.00
2018-06-29T23:38:13.385Z,95233.00
2018-06-29T23:40:45.084Z,95228.00
2018-06-29T23:43:16.826Z,95228.00
2018-06-29T23:45:48.546Z,95226.00
2018-06-29T23:48:21.105Z,95231.00
2018-06-29T23:50:52.862Z,95236.00
2018-06-29T23:53:24.522Z,95225.00
2018-06-29T23:55:56.263Z,95229.00
2018-06-29T23:58:28.022Z,95229.00
